Time;durP1;ratioP1;P1;durP2;ratioP2;P2;SDS_P1;SDS_P2;PMS_P1;PMS_P2;Temp;Humidity;BMP_temperature;BMP_pressure;BME280_temperature;BME280_humidity;BME280_pressure;Samples;Min_cycle;Max_cycle;Signal;HPM_P1;HPM_P2
2023/09/06 00:00:52;;;;;;;11.07;5.37;;;14.30;99.90;;;;;;5031571;28;20463;-68
2023/09/06 00:03:20;;;;;;;11.63;6.37;;;14.40;99.90;;;;;;5023325;28;20487;-69
2023/09/06 00:05:48;;;;;;;11.57;4.93;;;14.30;99.90;;;;;;5031400;28;20542;-70
2023/09/06 00:08:16;;;;;;;12.63;4.77;;;14.30;99.90;;;;;;5031231;28;20572;-70
2023/09/06 00:10:44;;;;;;;9.40;4.80;;;14.20;99.90;;;;;;5031594;28;20445;-69
2023/09/06 00:13:13;;;;;;;10.33;4.73;;;14.00;99.90;;;;;;5031481;28;20451;-70
2023/09/06 00:15:43;;;;;;;13.90;5.00;;;14.10;99.90;;;;;;5030829;28;20953;-71
2023/09/06 00:18:12;;;;;;;10.20;4.93;;;14.20;99.90;;;;;;5031318;28;20525;-70
2023/09/06 00:20:40;;;;;;;9.97;4.97;;;14.20;99.90;;;;;;5031354;28;20445;-69
2023/09/06 00:23:09;;;;;;;11.40;5.10;;;14.20;99.90;;;;;;5030765;28;20455;-69
2023/09/06 00:25:38;;;;;;;11.77;5.53;;;14.10;99.90;;;;;;5031602;28;20534;-68
2023/09/06 00:28:06;;;;;;;10.43;4.57;;;13.90;99.90;;;;;;5030991;28;20487;-70
2023/09/06 00:30:35;;;;;;;17.43;5.50;;;13.90;99.90;;;;;;5031272;28;20451;-70
2023/09/06 00:33:05;;;;;;;11.53;5.20;;;13.80;99.90;;;;;;5030591;28;20453;-70
2023/09/06 00:35:35;;;;;;;11.30;6.03;;;13.80;99.90;;;;;;5031409;28;20441;-70
2023/09/06 00:38:05;;;;;;;12.00;6.20;;;13.70;99.90;;;;;;5031086;28;20467;-69
2023/09/06 00:40:36;;;;;;;10.93;4.70;;;13.60;99.90;;;;;;5031132;28;20477;-69
2023/09/06 00:43:05;;;;;;;11.90;5.53;;;13.50;99.90;;;;;;5031061;28;20523;-69
2023/09/06 00:45:38;;;;;;;11.50;6.23;;;13.40;99.90;;;;;;5030546;28;20502;-69
2023/09/06 00:48:08;;;;;;;10.50;5.17;;;13.40;99.90;;;;;;5030810;28;21057;-69
2023/09/06 00:50:38;;;;;;;12.77;5.87;;;13.40;99.90;;;;;;5030586;28;20448;-69
2023/09/06 00:53:07;;;;;;;11.90;5.90;;;13.40;99.90;;;;;;5030900;28;20475;-69
2023/09/06 00:55:37;;;;;;;12.13;5.70;;;13.50;99.90;;;;;;5030795;28;20860;-69
2023/09/06 00:58:06;;;;;;;10.40;5.47;;;13.50;99.90;;;;;;5030727;28;20846;-69
2023/09/06 01:00:35;;;;;;;12.73;5.80;;;13.60;99.90;;;;;;5030931;28;20442;-69
2023/09/06 01:03:04;;;;;;;11.30;5.70;;;13.50;99.90;;;;;;5030394;28;20464;-69
2023/09/06 01:05:42;;;;;;;11.07;5.70;;;13.40;99.90;;;;;;5030844;28;20441;-69
2023/09/06 01:08:14;;;;;;;12.63;5.70;;;13.30;99.90;;;;;;5030307;28;20487;-69
2023/09/06 01:10:42;;;;;;;11.23;6.23;;;13.30;99.90;;;;;;5030846;28;20502;-68
2023/09/06 01:13:10;;;;;;;13.67;6.77;;;13.20;99.90;;;;;;5029748;28;20452;-70
2023/09/06 01:15:42;;;;;;;12.73;6.77;;;13.20;99.90;;;;;;5031012;28;20819;-69
2023/09/06 01:18:10;;;;;;;12.90;6.47;;;13.20;99.90;;;;;;5030324;28;20560;-70
2023/09/06 01:20:43;;;;;;;11.03;5.37;;;13.20;99.90;;;;;;5030696;28;20452;-68
2023/09/06 01:23:31;;;;;;;14.83;6.37;;;13.30;99.90;;;;;;5030414;28;20448;-70
2023/09/06 01:25:58;;;;;;;10.97;6.20;;;13.20;99.90;;;;;;5031667;28;20436;-69
2023/09/06 01:28:27;;;;;;;11.70;5.97;;;13.20;99.90;;;;;;5041812;28;20485;-70
2023/09/06 01:30:56;;;;;;;11.83;5.73;;;13.20;99.90;;;;;;5035488;28;20475;-69
2023/09/06 01:33:24;;;;;;;13.37;6.27;;;13.10;99.90;;;;;;5035896;28;20441;-70
2023/09/06 01:35:51;;;;;;;15.60;7.23;;;12.90;99.90;;;;;;5034850;28;20476;-71
2023/09/06 01:38:19;;;;;;;12.50;7.00;;;12.90;99.90;;;;;;5034913;28;21040;-68
2023/09/06 01:40:48;;;;;;;12.70;6.27;;;13.00;99.90;;;;;;5034709;28;20931;-68
2023/09/06 01:43:18;;;;;;;12.40;7.30;;;13.00;99.90;;;;;;5034612;28;20548;-68
2023/09/06 01:45:48;;;;;;;12.77;6.60;;;13.00;99.90;;;;;;5034399;28;20452;-68
2023/09/06 01:48:16;;;;;;;14.90;7.17;;;12.90;99.90;;;;;;5035529;28;21006;-68
2023/09/06 01:50:44;;;;;;;12.67;6.63;;;12.80;99.90;;;;;;5040100;28;20471;-69
2023/09/06 01:53:13;;;;;;;14.13;6.80;;;12.70;99.90;;;;;;5048295;28;20809;-68
2023/09/06 01:55:42;;;;;;;11.77;6.13;;;12.70;99.90;;;;;;5048493;28;20444;-69
2023/09/06 01:58:12;;;;;;;15.77;7.73;;;12.70;99.90;;;;;;5043661;28;20465;-69
2023/09/06 02:00:40;;;;;;;14.97;6.80;;;12.80;99.90;;;;;;5042265;28;21302;-68
2023/09/06 02:03:11;;;;;;;13.87;5.90;;;12.90;99.90;;;;;;5039369;28;20456;-69
2023/09/06 02:05:40;;;;;;;11.60;5.77;;;12.90;99.90;;;;;;5037713;28;20506;-68
2023/09/06 02:08:08;;;;;;;11.97;6.20;;;12.80;99.90;;;;;;5036041;28;20489;-69
2023/09/06 02:10:36;;;;;;;13.13;6.63;;;12.70;99.90;;;;;;5042476;28;20510;-69
2023/09/06 02:13:04;;;;;;;13.30;7.30;;;12.60;99.90;;;;;;5040602;28;20539;-71
2023/09/06 02:15:34;;;;;;;15.43;8.30;;;12.50;99.90;;;;;;5036566;28;20834;-70
2023/09/06 02:18:02;;;;;;;15.03;8.57;;;12.60;99.90;;;;;;5035645;28;20474;-70
2023/09/06 02:20:30;;;;;;;13.40;7.13;;;12.60;99.90;;;;;;5047074;28;20551;-70
2023/09/06 02:22:58;;;;;;;13.40;7.40;;;12.50;99.90;;;;;;5048014;28;20447;-71
2023/09/06 02:25:30;;;;;;;12.60;6.50;;;12.50;99.90;;;;;;5046608;28;20511;-71
2023/09/06 02:28:03;;;;;;;13.33;6.93;;;12.50;99.90;;;;;;5044652;28;20468;-68
2023/09/06 02:30:31;;;;;;;12.83;6.60;;;12.50;99.90;;;;;;5051165;28;20476;-69
2023/09/06 02:33:01;;;;;;;11.77;6.40;;;12.50;99.90;;;;;;5049908;28;20447;-69
2023/09/06 02:35:29;;;;;;;14.00;6.37;;;12.60;99.90;;;;;;5044278;28;20437;-68
2023/09/06 02:37:57;;;;;;;12.40;6.37;;;12.60;99.90;;;;;;5034454;28;20469;-67
2023/09/06 02:40:24;;;;;;;11.93;6.67;;;12.60;99.90;;;;;;5034505;28;20441;-68
2023/09/06 02:42:54;;;;;;;13.23;6.33;;;12.50;99.90;;;;;;5033038;28;20449;-68
2023/09/06 02:45:22;;;;;;;12.50;6.43;;;12.50;99.90;;;;;;5033396;28;20536;-68
2023/09/06 02:47:52;;;;;;;16.07;8.80;;;12.50;99.90;;;;;;5029761;28;20465;-67
2023/09/06 02:50:23;;;;;;;12.60;6.53;;;12.50;99.90;;;;;;5023638;28;20496;-68
2023/09/06 02:52:56;;;;;;;12.73;5.90;;;12.40;99.90;;;;;;5032611;28;20552;-68
2023/09/06 02:55:24;;;;;;;12.20;6.70;;;12.40;99.90;;;;;;5033105;28;20490;-68
2023/09/06 02:57:52;;;;;;;12.70;7.67;;;12.30;99.90;;;;;;5033029;28;20468;-68
2023/09/06 03:00:24;;;;;;;12.20;5.67;;;12.30;99.90;;;;;;5032331;28;20932;-69
2023/09/06 03:02:55;;;;;;;11.50;5.93;;;12.30;99.90;;;;;;5032554;28;20448;-70
2023/09/06 03:05:27;;;;;;;15.97;7.73;;;12.20;99.90;;;;;;5032764;28;20453;-69
2023/09/06 03:07:55;;;;;;;13.20;7.10;;;12.10;99.90;;;;;;5032758;28;20482;-71
2023/09/06 03:10:23;;;;;;;12.77;7.20;;;12.00;99.90;;;;;;5032438;28;20491;-70
2023/09/06 03:12:55;;;;;;;13.63;6.80;;;12.10;99.90;;;;;;5032528;28;20456;-70
2023/09/06 03:15:28;;;;;;;11.93;6.33;;;12.00;99.90;;;;;;5032620;28;20526;-71
2023/09/06 03:17:59;;;;;;;14.60;8.07;;;11.90;99.90;;;;;;5032696;28;20931;-70
2023/09/06 03:20:33;;;;;;;14.37;7.20;;;11.80;99.90;;;;;;5032334;28;20437;-71
2023/09/06 03:23:02;;;;;;;13.23;7.20;;;12.00;99.90;;;;;;5027293;28;20487;-71
2023/09/06 03:25:32;;;;;;;11.57;6.77;;;12.10;99.90;;;;;;5031585;28;20448;-70
2023/09/06 03:28:01;;;;;;;13.43;7.10;;;12.00;99.90;;;;;;5032065;28;20551;-68
2023/09/06 03:30:30;;;;;;;12.83;6.93;;;11.90;99.90;;;;;;5032346;28;20484;-69
2023/09/06 03:32:58;;;;;;;14.63;7.80;;;11.90;99.90;;;;;;5031826;28;20444;-70
2023/09/06 03:35:27;;;;;;;11.90;6.77;;;11.80;99.90;;;;;;5032436;28;20444;-70
2023/09/06 03:37:56;;;;;;;13.93;6.70;;;11.90;99.90;;;;;;5031867;28;20922;-70
2023/09/06 03:40:34;;;;;;;12.17;6.53;;;12.00;99.90;;;;;;5032466;28;20494;-70
2023/09/06 03:43:14;;;;;;;11.63;6.33;;;11.90;99.90;;;;;;5031719;28;20535;-70
2023/09/06 03:45:45;;;;;;;13.90;7.03;;;11.90;99.90;;;;;;5032215;28;20478;-70
2023/09/06 03:48:14;;;;;;;14.27;7.23;;;12.00;99.90;;;;;;5031753;28;20469;-71
2023/09/06 03:50:45;;;;;;;12.47;6.40;;;12.00;99.90;;;;;;5031184;28;20861;-70
2023/09/06 03:53:14;;;;;;;12.60;6.30;;;12.00;99.90;;;;;;5031435;28;20444;-70
2023/09/06 03:55:42;;;;;;;16.40;7.20;;;11.80;99.90;;;;;;5032116;28;20441;-69
2023/09/06 03:58:11;;;;;;;12.10;6.53;;;11.70;99.90;;;;;;5031880;28;20555;-70
2023/09/06 04:00:43;;;;;;;13.90;7.20;;;11.60;99.90;;;;;;5031490;28;20531;-70
2023/09/06 04:03:11;;;;;;;17.57;8.20;;;11.60;99.90;;;;;;5031549;28;21022;-70
2023/09/06 04:05:45;;;;;;;13.10;7.00;;;11.80;99.90;;;;;;5031723;28;20447;-70
2023/09/06 04:08:17;;;;;;;14.00;7.20;;;11.60;99.90;;;;;;5031380;28;20477;-69
2023/09/06 04:10:54;;;;;;;17.27;7.90;;;11.50;99.90;;;;;;5088185;28;20526;-70
2023/09/06 04:13:21;;;;;;;12.33;7.00;;;11.50;99.90;;;;;;5088031;28;20477;-70
2023/09/06 04:15:50;;;;;;;15.10;7.67;;;11.50;99.90;;;;;;5088153;28;20437;-70
2023/09/06 04:18:18;;;;;;;15.07;7.03;;;11.60;99.90;;;;;;5088414;28;20508;-70
2023/09/06 04:20:49;;;;;;;11.13;6.13;;;11.60;99.90;;;;;;5087790;28;20438;-69
2023/09/06 04:23:17;;;;;;;14.60;7.13;;;11.60;99.90;;;;;;5087909;28;20537;-70
2023/09/06 04:25:45;;;;;;;13.73;6.23;;;11.50;99.90;;;;;;5088138;28;20442;-70
2023/09/06 04:28:16;;;;;;;11.53;6.10;;;11.50;99.90;;;;;;5088325;28;20905;-70
2023/09/06 04:30:46;;;;;;;13.40;6.37;;;11.40;99.90;;;;;;5087970;28;20480;-70
2023/09/06 04:33:15;;;;;;;13.10;7.50;;;11.40;99.90;;;;;;5087568;28;20473;-70
2023/09/06 04:35:45;;;;;;;15.90;7.30;;;11.50;99.90;;;;;;5088054;28;20464;-70
2023/09/06 04:38:14;;;;;;;12.83;7.10;;;11.40;99.90;;;;;;5087548;28;20461;-70
2023/09/06 04:40:44;;;;;;;14.90;7.97;;;11.30;99.90;;;;;;5087719;28;20436;-70
2023/09/06 04:43:15;;;;;;;14.13;7.30;;;11.50;99.90;;;;;;5087353;28;20445;-70
2023/09/06 04:45:43;;;;;;;13.77;7.17;;;11.50;99.90;;;;;;5087861;28;20440;-69
2023/09/06 04:48:16;;;;;;;14.00;7.73;;;11.40;99.90;;;;;;5087410;28;20465;-70
2023/09/06 04:50:45;;;;;;;13.43;7.53;;;11.30;99.90;;;;;;5087735;28;20479;-70
2023/09/06 04:53:17;;;;;;;16.07;8.10;;;11.30;99.90;;;;;;5087534;28;20476;-70
2023/09/06 04:55:49;;;;;;;13.73;7.73;;;11.40;99.90;;;;;;5087578;28;20946;-70
2023/09/06 04:58:19;;;;;;;14.30;7.40;;;11.40;99.90;;;;;;5087521;28;20461;-69
2023/09/06 05:00:49;;;;;;;16.27;7.77;;;11.30;99.90;;;;;;5087159;28;20437;-70
2023/09/06 05:03:18;;;;;;;14.80;7.97;;;11.30;99.90;;;;;;5087111;28;20452;-69
2023/09/06 05:05:47;;;;;;;13.00;7.20;;;11.40;99.90;;;;;;5087105;28;20451;-70
2023/09/06 05:08:16;;;;;;;14.83;8.20;;;11.30;99.90;;;;;;5087334;28;20478;-70
2023/09/06 05:10:44;;;;;;;14.27;7.80;;;11.30;99.90;;;;;;5086843;28;20481;-70
2023/09/06 05:13:12;;;;;;;15.03;8.37;;;11.20;99.90;;;;;;5087008;28;20449;-70
2023/09/06 05:15:41;;;;;;;15.20;8.57;;;11.20;99.90;;;;;;5086940;28;20436;-70
2023/09/06 05:18:09;;;;;;;17.77;9.40;;;11.20;99.90;;;;;;5087003;28;20888;-71
2023/09/06 05:20:39;;;;;;;15.80;8.83;;;11.30;99.90;;;;;;5082709;28;20489;-72
2023/09/06 05:23:09;;;;;;;14.37;8.50;;;11.50;99.90;;;;;;5073139;28;20469;-72
2023/09/06 05:25:38;;;;;;;14.90;8.77;;;11.50;99.90;;;;;;5073577;28;20449;-70
2023/09/06 05:28:08;;;;;;;15.87;7.47;;;11.50;99.90;;;;;;5073082;28;20494;-70
2023/09/06 05:30:39;;;;;;;16.13;8.63;;;11.60;99.90;;;;;;5073344;28;20616;-71
2023/09/06 05:33:09;;;;;;;18.47;8.50;;;11.70;99.90;;;;;;5072993;28;20450;-70
2023/09/06 05:35:37;;;;;;;14.60;7.60;;;11.80;99.90;;;;;;5073738;28;20441;-70
2023/09/06 05:38:05;;;;;;;13.30;8.07;;;11.80;99.90;;;;;;5067094;28;20462;-71
2023/09/06 05:40:34;;;;;;;14.13;8.57;;;11.90;99.90;;;;;;5073123;28;20463;-71
2023/09/06 05:43:03;;;;;;;14.70;7.97;;;12.00;99.90;;;;;;5072582;28;20428;-71
2023/09/06 05:45:32;;;;;;;14.77;7.97;;;12.00;99.90;;;;;;5073260;28;20456;-68
2023/09/06 05:48:00;;;;;;;14.13;7.40;;;12.10;99.90;;;;;;5068930;28;20473;-69
2023/09/06 05:50:29;;;;;;;14.10;8.60;;;12.10;99.90;;;;;;5072802;28;20469;-69
2023/09/06 05:52:57;;;;;;;14.20;7.83;;;12.00;99.90;;;;;;5073224;28;20530;-69
2023/09/06 05:55:25;;;;;;;15.73;7.50;;;12.10;99.90;;;;;;5072740;28;20453;-69
2023/09/06 05:57:53;;;;;;;16.20;8.47;;;12.10;99.90;;;;;;5073749;28;20463;-69
2023/09/06 06:00:21;;;;;;;13.90;7.60;;;12.20;99.90;;;;;;5072577;28;20442;-69
2023/09/06 06:02:50;;;;;;;17.10;8.50;;;12.20;99.90;;;;;;5072711;28;20463;-69
2023/09/06 06:05:18;;;;;;;15.27;8.00;;;12.30;99.90;;;;;;5072737;28;20439;-69
2023/09/06 06:07:48;;;;;;;13.70;7.50;;;12.40;99.90;;;;;;5072684;28;20554;-69
2023/09/06 06:10:16;;;;;;;16.03;9.07;;;12.50;99.90;;;;;;5072333;28;20490;-69
2023/09/06 06:12:44;;;;;;;14.70;8.83;;;12.70;99.90;;;;;;5072554;28;20534;-68
2023/09/06 06:15:12;;;;;;;14.70;9.30;;;12.90;99.90;;;;;;5073114;28;20447;-69
2023/09/06 06:17:41;;;;;;;12.80;8.03;;;13.00;99.90;;;;;;5072759;28;20470;-69
2023/09/06 06:20:11;;;;;;;15.43;8.70;;;13.10;99.90;;;;;;5072639;28;20493;-68
2023/09/06 06:22:39;;;;;;;13.27;8.27;;;13.30;99.90;;;;;;5071871;28;20538;-69
2023/09/06 06:25:11;;;;;;;13.73;7.00;;;13.50;99.90;;;;;;5072388;28;20444;-68
2023/09/06 06:27:40;;;;;;;14.10;7.90;;;13.60;99.90;;;;;;5072159;28;20586;-70
2023/09/06 06:30:11;;;;;;;17.70;8.17;;;13.60;99.90;;;;;;5072413;28;20471;-70
2023/09/06 06:32:39;;;;;;;13.17;7.30;;;13.70;99.90;;;;;;5070893;28;20832;-71
2023/09/06 06:35:11;;;;;;;19.07;8.60;;;13.70;99.90;;;;;;5072182;28;20983;-70
2023/09/06 06:37:39;;;;;;;18.50;10.17;;;13.90;99.90;;;;;;5072198;28;20466;-71
2023/09/06 06:40:09;;;;;;;17.13;10.07;;;13.90;99.90;;;;;;5072167;28;20823;-70
2023/09/06 06:42:39;;;;;;;18.70;9.60;;;13.90;99.90;;;;;;5071581;28;20489;-70
2023/09/06 06:45:09;;;;;;;17.63;9.00;;;14.00;99.90;;;;;;5072155;28;20462;-70
2023/09/06 06:47:37;;;;;;;15.30;9.00;;;14.20;99.90;;;;;;5071883;28;20469;-70
2023/09/06 06:50:06;;;;;;;17.90;9.07;;;14.30;99.90;;;;;;5071980;28;20564;-71
2023/09/06 06:52:36;;;;;;;16.30;8.07;;;14.30;99.90;;;;;;5071926;28;20484;-71
2023/09/06 06:55:05;;;;;;;15.90;9.20;;;14.50;99.90;;;;;;5071748;28;20461;-71
2023/09/06 06:57:35;;;;;;;16.33;9.67;;;14.50;99.90;;;;;;5071818;28;20466;-71
2023/09/06 07:00:05;;;;;;;14.93;8.60;;;14.60;99.90;;;;;;5071420;28;20454;-70
2023/09/06 07:02:34;;;;;;;16.97;10.37;;;14.80;99.90;;;;;;5071641;28;20434;-70
2023/09/06 07:05:03;;;;;;;18.43;8.17;;;14.90;99.90;;;;;;5071549;28;20448;-70
2023/09/06 07:07:31;;;;;;;15.47;8.83;;;15.00;99.90;;;;;;5071594;28;20450;-70
2023/09/06 07:09:59;;;;;;;13.97;8.10;;;15.10;99.90;;;;;;5071414;28;20899;-70
2023/09/06 07:12:27;;;;;;;15.53;9.23;;;15.20;99.90;;;;;;5071227;28;20485;-69
2023/09/06 07:14:56;;;;;;;12.53;7.60;;;15.30;99.90;;;;;;5071113;28;20443;-70
2023/09/06 07:17:24;;;;;;;13.70;7.83;;;15.50;99.90;;;;;;5071190;28;20447;-70
2023/09/06 07:19:52;;;;;;;13.07;7.83;;;15.70;99.90;;;;;;5071426;28;20435;-69
2023/09/06 07:22:20;;;;;;;15.80;8.97;;;15.80;99.90;;;;;;5071118;28;20443;-70
2023/09/06 07:24:48;;;;;;;14.03;7.77;;;15.90;99.90;;;;;;5071101;28;20530;-69
2023/09/06 07:27:16;;;;;;;17.37;8.23;;;16.20;99.90;;;;;;5070861;28;20490;-70
2023/09/06 07:29:44;;;;;;;13.30;7.77;;;16.40;99.90;;;;;;5071054;28;20976;-70
2023/09/06 07:32:13;;;;;;;13.30;7.37;;;16.40;99.90;;;;;;5070940;28;20552;-70
2023/09/06 07:34:41;;;;;;;16.70;8.43;;;16.50;99.90;;;;;;5070958;28;20449;-70
2023/09/06 07:37:10;;;;;;;13.40;7.30;;;16.60;99.90;;;;;;5070772;28;20445;-71
2023/09/06 07:39:38;;;;;;;13.13;6.83;;;16.80;99.90;;;;;;5070598;28;20894;-70
2023/09/06 07:42:07;;;;;;;14.87;7.30;;;16.90;99.90;;;;;;5070700;28;20533;-70
2023/09/06 07:44:35;;;;;;;15.10;6.70;;;17.00;99.90;;;;;;5070645;28;20443;-69
2023/09/06 07:47:04;;;;;;;18.07;7.07;;;17.10;99.90;;;;;;5070858;28;20454;-71
2023/09/06 07:49:33;;;;;;;10.60;5.83;;;17.20;99.90;;;;;;5070731;28;20474;-68
2023/09/06 07:52:04;;;;;;;14.73;6.40;;;17.40;99.90;;;;;;5070742;28;20474;-70
2023/09/06 07:54:33;;;;;;;9.63;5.03;;;17.50;99.90;;;;;;5070509;28;20836;-71
2023/09/06 07:57:01;;;;;;;10.70;5.80;;;17.60;99.90;;;;;;5070900;28;20443;-71
2023/09/06 07:59:29;;;;;;;12.60;6.00;;;17.70;99.90;;;;;;5069560;28;20508;-72
2023/09/06 08:01:57;;;;;;;11.90;5.83;;;17.90;99.90;;;;;;5063458;28;20438;-71
2023/09/06 08:04:25;;;;;;;11.40;5.70;;;17.90;99.90;;;;;;5066139;28;20478;-72
2023/09/06 08:06:55;;;;;;;10.80;5.57;;;18.10;99.90;;;;;;5070887;28;20820;-72
2023/09/06 08:09:24;;;;;;;13.33;5.40;;;18.30;99.90;;;;;;5070079;28;20473;-72
2023/09/06 08:11:52;;;;;;;10.40;5.40;;;18.50;99.90;;;;;;5070832;28;20471;-72
2023/09/06 08:14:21;;;;;;;11.33;5.60;;;18.60;99.90;;;;;;5070323;28;20471;-75
2023/09/06 08:16:49;;;;;;;11.23;6.20;;;18.80;99.90;;;;;;5070738;28;20435;-72
2023/09/06 08:19:17;;;;;;;10.33;5.00;;;18.90;99.90;;;;;;5070699;28;20467;-72
2023/09/06 08:21:45;;;;;;;9.43;5.20;;;19.10;99.90;;;;;;5070438;28;20441;-72
2023/09/06 08:24:17;;;;;;;10.63;5.20;;;19.20;99.90;;;;;;5070329;28;20454;-73
2023/09/06 08:26:49;;;;;;;10.20;4.60;;;19.40;99.90;;;;;;5070594;28;20447;-73
2023/09/06 08:29:17;;;;;;;11.43;5.03;;;19.50;99.90;;;;;;5070787;28;20975;-72
2023/09/06 08:31:45;;;;;;;11.20;5.10;;;19.60;99.90;;;;;;5070354;28;20479;-71
2023/09/06 08:34:13;;;;;;;11.20;5.47;;;19.80;99.90;;;;;;5062581;28;20486;-71
2023/09/06 08:36:41;;;;;;;9.77;5.23;;;19.90;99.90;;;;;;5059883;28;20470;-72
2023/09/06 08:39:08;;;;;;;10.70;4.77;;;20.00;99.90;;;;;;5061267;28;20466;-71
2023/09/06 08:41:39;;;;;;;11.87;5.90;;;20.10;99.90;;;;;;5059717;28;20447;-72
2023/09/06 08:44:11;;;;;;;11.43;5.30;;;20.20;99.90;;;;;;5058808;28;20497;-72
2023/09/06 08:46:42;;;;;;;9.73;5.13;;;20.30;99.90;;;;;;5059967;28;20482;-71
2023/09/06 08:49:11;;;;;;;11.17;6.13;;;20.50;99.90;;;;;;5060707;28;20483;-71
2023/09/06 08:51:40;;;;;;;11.17;5.50;;;20.70;99.90;;;;;;5059727;28;20514;-71
2023/09/06 08:54:08;;;;;;;9.40;4.90;;;20.90;99.90;;;;;;5058276;28;20444;-71
2023/09/06 08:56:38;;;;;;;9.83;4.87;;;21.00;99.90;;;;;;5062239;28;20496;-71
2023/09/06 08:59:06;;;;;;;10.40;5.40;;;21.10;99.90;;;;;;5064656;28;20627;-71
2023/09/06 09:01:37;;;;;;;11.80;5.07;;;21.30;99.90;;;;;;5061864;28;20427;-72
2023/09/06 09:04:06;;;;;;;10.10;4.80;;;21.40;99.90;;;;;;5063612;28;20443;-71
2023/09/06 09:06:34;;;;;;;10.20;5.17;;;21.50;99.90;;;;;;5065061;28;20432;-71
2023/09/06 09:09:16;;;;;;;10.07;5.23;;;21.70;99.90;;;;;;5063010;28;20544;-71
2023/09/06 09:11:46;;;;;;;10.10;5.73;;;22.00;99.90;;;;;;5065844;28;20475;-72
2023/09/06 09:14:22;;;;;;;11.30;5.33;;;22.10;99.90;;;;;;5064822;28;20450;-71
2023/09/06 09:16:54;;;;;;;10.33;5.10;;;22.30;99.90;;;;;;5071269;28;20435;-70
2023/09/06 09:19:22;;;;;;;8.90;4.50;;;22.50;99.90;;;;;;5072947;28;20524;-71
2023/09/06 09:21:51;;;;;;;10.63;4.70;;;22.70;99.90;;;;;;5072979;28;20513;-72
2023/09/06 09:24:27;;;;;;;10.93;5.77;;;23.10;99.90;;;;;;5063548;28;20455;-72
2023/09/06 09:26:57;;;;;;;10.33;4.90;;;23.60;99.90;;;;;;5063742;28;20530;-71
2023/09/06 09:29:26;;;;;;;12.87;5.40;;;24.10;99.90;;;;;;5064538;28;20551;-72
2023/09/06 09:31:54;;;;;;;11.17;5.60;;;24.50;99.90;;;;;;5061813;28;20474;-71
2023/09/06 09:34:22;;;;;;;11.40;5.43;;;24.80;99.90;;;;;;5063225;28;20449;-73
2023/09/06 09:36:51;;;;;;;10.83;5.30;;;25.10;99.90;;;;;;5062039;28;20450;-72
2023/09/06 09:39:19;;;;;;;10.43;5.20;;;25.60;99.90;;;;;;5063873;28;20460;-72
2023/09/06 09:41:50;;;;;;;9.77;4.50;;;25.80;98.50;;;;;;5063637;28;20439;-72
2023/09/06 09:44:28;;;;;;;9.53;4.03;;;26.10;99.90;;;;;;5063231;28;20470;-72
2023/09/06 09:46:57;;;;;;;9.57;4.97;;;26.50;97.00;;;;;;5063040;28;20436;-72
2023/09/06 09:49:28;;;;;;;11.33;5.17;;;26.50;95.90;;;;;;5064539;28;20914;-72
2023/09/06 09:51:56;;;;;;;9.40;5.60;;;26.80;95.20;;;;;;5073041;28;20570;-73
2023/09/06 09:54:24;;;;;;;11.50;4.57;;;27.00;90.60;;;;;;5072412;28;20530;-72
2023/09/06 09:57:04;;;;;;;9.97;5.10;;;26.90;90.40;;;;;;5072833;28;20443;-71
2023/09/06 09:59:36;;;;;;;13.43;5.33;;;27.20;92.70;;;;;;5072554;28;20463;-71
2023/09/06 10:02:05;;;;;;;10.50;5.97;;;27.20;88.00;;;;;;5073156;28;20431;-72
2023/09/06 10:04:37;;;;;;;10.17;5.20;;;26.80;87.30;;;;;;5072239;28;20439;-72
2023/09/06 10:07:08;;;;;;;10.53;5.37;;;26.40;89.30;;;;;;5072833;28;20448;-73
2023/09/06 10:09:40;;;;;;;12.00;6.10;;;26.30;89.40;;;;;;5063360;28;20517;-73
2023/09/06 10:12:09;;;;;;;13.03;6.13;;;26.10;89.30;;;;;;5070588;28;20486;-73
2023/09/06 10:14:42;;;;;;;12.17;6.97;;;25.90;88.70;;;;;;5073205;28;20441;-73
2023/09/06 10:17:12;;;;;;;10.13;5.10;;;25.80;88.60;;;;;;5072479;28;20485;-73
2023/09/06 10:19:42;;;;;;;10.10;4.80;;;25.90;87.70;;;;;;5072681;28;20436;-72
2023/09/06 10:22:22;;;;;;;10.50;5.43;;;25.90;91.10;;;;;;5072310;28;20537;-72
2023/09/06 10:24:54;;;;;;;10.70;5.83;;;26.40;90.50;;;;;;5066238;28;20452;-73
2023/09/06 10:27:32;;;;;;;11.63;5.33;;;27.00;89.70;;;;;;5069627;28;20847;-72
2023/09/06 10:30:10;;;;;;;10.43;5.60;;;27.00;85.80;;;;;;5072305;28;20439;-72
2023/09/06 10:32:42;;;;;;;10.03;5.03;;;27.40;82.10;;;;;;5071531;28;20471;-72
2023/09/06 10:35:21;;;;;;;9.83;5.40;;;27.80;83.50;;;;;;5071861;28;20435;-72
2023/09/06 10:38:06;;;;;;;9.97;5.00;;;28.20;83.90;;;;;;5071792;28;20527;-73
2023/09/06 10:41:06;;;;;;;10.93;5.80;;;28.70;82.40;;;;;;5071603;28;20462;-72
2023/09/06 10:43:55;;;;;;;11.57;4.90;;;28.80;77.20;;;;;;5071085;28;20469;-73
2023/09/06 10:46:28;;;;;;;10.33;4.77;;;29.20;73.30;;;;;;5058525;28;20432;-72
2023/09/06 10:49:19;;;;;;;9.40;4.90;;;29.70;70.90;;;;;;5071630;28;20473;-73
2023/09/06 10:52:01;;;;;;;11.67;4.50;;;30.00;73.80;;;;;;5071718;28;20816;-72
2023/09/06 10:54:34;;;;;;;10.47;5.17;;;30.50;66.80;;;;;;5069146;28;20478;-73
2023/09/06 10:57:05;;;;;;;9.50;5.07;;;30.60;61.40;;;;;;5067135;28;20493;-74
2023/09/06 10:59:37;;;;;;;10.53;4.77;;;30.80;63.00;;;;;;5073164;28;20878;-73
2023/09/06 11:02:24;;;;;;;9.10;4.70;;;30.60;60.10;;;;;;5075932;28;20442;-73
2023/09/06 11:05:06;;;;;;;9.80;5.30;;;30.20;60.50;;;;;;5056068;28;20998;-72
2023/09/06 11:07:38;;;;;;;10.87;5.37;;;30.30;65.30;;;;;;5071783;28;20455;-71
2023/09/06 11:10:22;;;;;;;11.67;5.30;;;30.30;60.40;;;;;;5061763;28;20459;-72
2023/09/06 11:12:53;;;;;;;11.73;5.20;;;29.60;64.30;;;;;;5062363;28;21071;-71
2023/09/06 11:15:22;;;;;;;9.50;5.20;;;30.20;62.10;;;;;;5069532;28;20459;-72
2023/09/06 11:17:58;;;;;;;10.87;5.80;;;30.10;63.90;;;;;;5071417;28;20541;-70
2023/09/06 11:20:26;;;;;;;10.50;5.40;;;29.50;61.50;;;;;;5070833;28;21274;-72
2023/09/06 11:22:56;;;;;;;10.90;5.47;;;29.50;66.00;;;;;;5070799;28;20534;-72
2023/09/06 11:25:26;;;;;;;11.63;6.03;;;29.50;64.70;;;;;;5067046;28;20451;-74
2023/09/06 11:27:56;;;;;;;11.30;5.30;;;29.90;66.90;;;;;;5054617;28;20455;-74
2023/09/06 11:30:26;;;;;;;11.23;5.17;;;30.60;63.10;;;;;;5070919;28;20443;-73
2023/09/06 11:32:56;;;;;;;10.80;6.90;;;31.10;63.60;;;;;;5069968;28;20479;-74
2023/09/06 11:35:27;;;;;;;12.80;5.47;;;31.10;60.00;;;;;;5068240;28;20853;-74
2023/09/06 11:37:58;;;;;;;9.87;5.70;;;31.70;59.30;;;;;;5065205;28;20478;-73
2023/09/06 11:40:28;;;;;;;10.87;5.90;;;31.30;58.30;;;;;;5059117;28;20465;-74
2023/09/06 11:42:58;;;;;;;9.57;4.90;;;31.90;58.40;;;;;;5062743;28;20947;-74
2023/09/06 11:45:30;;;;;;;10.10;5.37;;;32.60;55.90;;;;;;5059785;28;20941;-73
2023/09/06 11:48:04;;;;;;;9.30;5.10;;;32.80;56.80;;;;;;5059082;28;20992;-74
2023/09/06 11:50:34;;;;;;;11.77;5.90;;;32.70;57.60;;;;;;5058874;28;20929;-74
2023/09/06 11:53:04;;;;;;;9.37;5.17;;;32.50;54.80;;;;;;5063557;28;20482;-74
2023/09/06 11:55:33;;;;;;;10.80;5.07;;;32.60;58.30;;;;;;5058883;28;20777;-73
2023/09/06 11:58:01;;;;;;;10.67;5.10;;;32.50;54.20;;;;;;5067267;28;20490;-74
2023/09/06 12:00:42;;;;;;;10.87;5.10;;;31.60;56.80;;;;;;5070507;28;20443;-74
2023/09/06 12:03:14;;;;;;;9.80;5.30;;;30.90;57.40;;;;;;5070609;28;20850;-74
2023/09/06 12:05:43;;;;;;;9.57;5.10;;;30.80;58.60;;;;;;5070696;28;20450;-73
2023/09/06 12:08:21;;;;;;;9.33;5.10;;;31.20;59.60;;;;;;5070989;28;21071;-75
2023/09/06 12:10:54;;;;;;;10.57;5.73;;;31.60;56.70;;;;;;5070638;28;20504;-75
2023/09/06 12:13:27;;;;;;;11.00;4.80;;;32.00;54.80;;;;;;5070725;28;20499;-74
2023/09/06 12:15:57;;;;;;;10.20;5.13;;;31.90;54.80;;;;;;5070571;28;21030;-74
2023/09/06 12:18:27;;;;;;;11.03;5.40;;;31.80;54.30;;;;;;5069841;28;20462;-73
2023/09/06 12:20:57;;;;;;;9.53;4.87;;;31.60;55.40;;;;;;5070502;28;20443;-73
2023/09/06 12:23:28;;;;;;;9.73;4.73;;;31.80;54.90;;;;;;5070457;28;20431;-74
2023/09/06 12:25:58;;;;;;;10.00;5.83;;;32.80;54.80;;;;;;5070646;28;20535;-74
2023/09/06 12:28:26;;;;;;;10.00;5.50;;;33.50;51.50;;;;;;5070447;28;20467;-75
2023/09/06 12:30:55;;;;;;;9.87;5.40;;;33.50;52.40;;;;;;5071521;28;20447;-75
2023/09/06 12:33:24;;;;;;;9.20;4.60;;;34.20;50.40;;;;;;5073954;28;20470;-76
2023/09/06 12:35:59;;;;;;;10.43;4.90;;;34.90;50.20;;;;;;5074827;28;20542;-76
2023/09/06 12:38:27;;;;;;;10.07;5.30;;;34.90;48.70;;;;;;5074380;28;21047;-77
2023/09/06 12:40:56;;;;;;;9.00;4.90;;;34.40;48.70;;;;;;5074605;28;21000;-76
2023/09/06 12:43:26;;;;;;;10.63;4.80;;;33.70;49.50;;;;;;5075061;28;20852;-75
2023/09/06 12:45:54;;;;;;;8.90;4.67;;;34.10;51.20;;;;;;5075021;28;20492;-78
2023/09/06 12:48:23;;;;;;;10.27;4.47;;;33.70;49.60;;;;;;5069999;28;20491;-79
2023/09/06 12:50:53;;;;;;;9.33;4.73;;;34.80;51.00;;;;;;5057674;28;20545;-76
2023/09/06 12:53:25;;;;;;;8.80;4.60;;;36.20;45.20;;;;;;5067688;28;20470;-77